Startpagina
METAR-TAF:

METAR-TAF

Vliegvelden :

El Salvador, El Salvador

Luchthaven El Salvador

breedte: 13-26N, lengte: 089-03W, hoogte: 25 m

Actueel weer

Dit bericht is 1 uur en het 3 minuten geleden gemaakt, om 16:50 UTC
Wind 8 kt uit het noorden, variërend tussen het noordwesten en het noordnoordoosten
Temperatuur 31°C
Vochtigheid 49%
Druk 1012 hPa
Zicht 10 km of meer
geen wolken onder 1500 m en geen cumulonimbus

METAR: MSLP 181650Z 36008KT 310V030 CAVOK 31/19 Q1012 A2988 NOSIG

Tijdstip: 11:53 (17:53 UTC)

Verwachting

Dit bericht is 2 uur en het 28 minuten geleden gemaakt, om 15:25 UTC
Verwachting geldig van 18 om 18 UTC tot 19 om 18 UTC
Wind 8 kt uit het westzuidwesten
Zicht 10 km of meer
Weinig wolken op 4700 ft
Van 19 om 0000 UTC
Wind 5 kt uit het noordoosten
Zicht 10 km of meer
geen wolken onder 1500 m en geen cumulonimbus

TAF: MSLP 181525Z 1818/1918 24008KT 9999 FEW047 TX34/1819Z TN21/1912Z FM190000 04005KT CAVOK

Waarnemingen en weersverwachtingen van meer dan 4000 vliegvelden (METAR en TAF).

De beschikbare stations zijn de gele en rode punten op de kaart.

Ga met uw muis naar het station om de naam te zien.

Klik dan om waarnemingen en weersverwachtingen te zien.

kaart wijzigen: klik op de groene knoppen met een zwart kruis om in te zoomen, op de groene knop met een streepje om uit te zoomen of op de groene pijlen voor aangrenzende kaarten.


METAR-TAF: